sensor_id;sensor_type;location;lat;lon;timestamp;pressure;altitude;pressure_sealevel;temperature;humidity
29163;BME280;20331;53.144;8.208;2022-10-31T00:09:36;101434.97;;;12.72;100.00
29163;BME280;20331;53.144;8.208;2022-10-31T00:19:57;101438.38;;;12.60;100.00
29163;BME280;20331;53.144;8.208;2022-10-31T00:30:19;101456.41;;;12.51;100.00
29163;BME280;20331;53.144;8.208;2022-10-31T00:40:40;101469.78;;;12.47;100.00
29163;BME280;20331;53.144;8.208;2022-10-31T00:51:02;101486.41;;;12.32;100.00
29163;BME280;20331;53.144;8.208;2022-10-31T01:01:23;101485.81;;;12.13;100.00
29163;BME280;20331;53.144;8.208;2022-10-31T01:11:45;101497.84;;;12.01;100.00
29163;BME280;20331;53.144;8.208;2022-10-31T01:22:06;101498.72;;;12.16;100.00
29163;BME280;20331;53.144;8.208;2022-10-31T01:32:28;101492.38;;;12.20;100.00
29163;BME280;20331;53.144;8.208;2022-10-31T01:42:52;101494.31;;;12.02;100.00
29163;BME280;20331;53.144;8.208;2022-10-31T01:53:14;101511.91;;;11.85;100.00
29163;BME280;20331;53.144;8.208;2022-10-31T02:03:36;101502.59;;;11.95;100.00
29163;BME280;20331;53.144;8.208;2022-10-31T02:13:58;101501.03;;;11.92;100.00
29163;BME280;20331;53.144;8.208;2022-10-31T02:35:10;101514.09;;;11.92;100.00
29163;BME280;20331;53.144;8.208;2022-10-31T02:45:42;101521.41;;;11.72;100.00
29163;BME280;20331;53.144;8.208;2022-10-31T03:06:56;101513.38;;;11.61;100.00
29163;BME280;20331;53.144;8.208;2022-10-31T03:17:36;101527.59;;;11.40;100.00
29163;BME280;20331;53.144;8.208;2022-10-31T03:27:58;101536.88;;;11.15;100.00
29163;BME280;20331;53.144;8.208;2022-10-31T03:38:21;101546.75;;;11.10;100.00
29163;BME280;20331;53.144;8.208;2022-10-31T03:48:43;101544.06;;;10.96;100.00
29163;BME280;20331;53.144;8.208;2022-10-31T03:59:10;101555.84;;;10.87;100.00
29163;BME280;20331;53.144;8.208;2022-10-31T04:09:35;101546.88;;;10.60;100.00
29163;BME280;20331;53.144;8.208;2022-10-31T04:20:01;101540.31;;;10.53;100.00
29163;BME280;20331;53.144;8.208;2022-10-31T04:30:22;101562.00;;;10.05;100.00
29163;BME280;20331;53.144;8.208;2022-10-31T04:40:44;101564.13;;;10.31;100.00
29163;BME280;20331;53.144;8.208;2022-10-31T04:51:05;101559.56;;;10.02;100.00
29163;BME280;20331;53.144;8.208;2022-10-31T05:01:27;101566.44;;;9.86;100.00
29163;BME280;20331;53.144;8.208;2022-10-31T05:11:49;101551.75;;;10.02;100.00
29163;BME280;20331;53.144;8.208;2022-10-31T05:22:10;101560.16;;;10.07;100.00
29163;BME280;20331;53.144;8.208;2022-10-31T05:32:42;101553.00;;;9.76;100.00
29163;BME280;20331;53.144;8.208;2022-10-31T05:43:04;101560.16;;;9.73;100.00
29163;BME280;20331;53.144;8.208;2022-10-31T05:53:25;101558.47;;;9.72;100.00
29163;BME280;20331;53.144;8.208;2022-10-31T06:03:46;101581.22;;;9.50;100.00
29163;BME280;20331;53.144;8.208;2022-10-31T06:14:08;101587.69;;;9.60;100.00
29163;BME280;20331;53.144;8.208;2022-10-31T06:24:29;101600.31;;;9.51;100.00
29163;BME280;20331;53.144;8.208;2022-10-31T06:34:50;101595.81;;;9.71;100.00
29163;BME280;20331;53.144;8.208;2022-10-31T06:45:12;101597.63;;;9.52;100.00
29163;BME280;20331;53.144;8.208;2022-10-31T06:55:33;101591.94;;;9.79;100.00
29163;BME280;20331;53.144;8.208;2022-10-31T07:05:55;101609.22;;;9.63;100.00
29163;BME280;20331;53.144;8.208;2022-10-31T07:16:17;101622.25;;;9.45;100.00
29163;BME280;20331;53.144;8.208;2022-10-31T07:26:39;101617.56;;;9.70;100.00
29163;BME280;20331;53.144;8.208;2022-10-31T07:37:00;101620.47;;;9.81;100.00
29163;BME280;20331;53.144;8.208;2022-10-31T07:47:21;101613.31;;;9.86;100.00
29163;BME280;20331;53.144;8.208;2022-10-31T07:57:43;101605.69;;;10.00;100.00
29163;BME280;20331;53.144;8.208;2022-10-31T08:08:04;101617.09;;;9.79;100.00
29163;BME280;20331;53.144;8.208;2022-10-31T08:18:26;101627.09;;;9.88;100.00
29163;BME280;20331;53.144;8.208;2022-10-31T08:28:47;101616.09;;;10.00;100.00
29163;BME280;20331;53.144;8.208;2022-10-31T08:39:10;101625.72;;;9.98;100.00
29163;BME280;20331;53.144;8.208;2022-10-31T08:49:32;101626.63;;;9.97;100.00
29163;BME280;20331;53.144;8.208;2022-10-31T08:59:53;101617.16;;;10.30;100.00
29163;BME280;20331;53.144;8.208;2022-10-31T09:10:15;101614.22;;;10.36;100.00
29163;BME280;20331;53.144;8.208;2022-10-31T09:20:36;101607.94;;;10.56;100.00
29163;BME280;20331;53.144;8.208;2022-10-31T09:30:58;101599.25;;;10.88;100.00
29163;BME280;20331;53.144;8.208;2022-10-31T09:41:32;101593.88;;;11.22;100.00
29163;BME280;20331;53.144;8.208;2022-10-31T09:52:03;101575.50;;;11.39;100.00
29163;BME280;20331;53.144;8.208;2022-10-31T10:02:37;101581.81;;;11.50;100.00
29163;BME280;20331;53.144;8.208;2022-10-31T10:13:13;101594.47;;;11.58;100.00
29163;BME280;20331;53.144;8.208;2022-10-31T10:23:52;101597.91;;;11.74;100.00
29163;BME280;20331;53.144;8.208;2022-10-31T10:44:38;101587.38;;;12.05;100.00
29163;BME280;20331;53.144;8.208;2022-10-31T11:05:53;101563.53;;;12.52;100.00
29163;BME280;20331;53.144;8.208;2022-10-31T11:16:28;101570.44;;;12.81;100.00
29163;BME280;20331;53.144;8.208;2022-10-31T11:26:50;101547.84;;;12.80;100.00
29163;BME280;20331;53.144;8.208;2022-10-31T11:37:13;101549.72;;;13.19;100.00
29163;BME280;20331;53.144;8.208;2022-10-31T11:47:36;101540.91;;;13.07;100.00
29163;BME280;20331;53.144;8.208;2022-10-31T11:57:57;101526.38;;;13.42;100.00
29163;BME280;20331;53.144;8.208;2022-10-31T12:08:19;101510.94;;;13.64;100.00
29163;BME280;20331;53.144;8.208;2022-10-31T12:18:48;101499.16;;;13.57;100.00
29163;BME280;20331;53.144;8.208;2022-10-31T12:29:28;101485.31;;;13.43;100.00
29163;BME280;20331;53.144;8.208;2022-10-31T13:00:50;101414.00;;;14.01;100.00
29163;BME280;20331;53.144;8.208;2022-10-31T13:11:23;101396.16;;;14.19;100.00
29163;BME280;20331;53.144;8.208;2022-10-31T13:32:13;101378.81;;;14.29;100.00
29163;BME280;20331;53.144;8.208;2022-10-31T13:42:46;101351.44;;;14.33;100.00
29163;BME280;20331;53.144;8.208;2022-10-31T14:03:33;101275.81;;;14.27;100.00
29163;BME280;20331;53.144;8.208;2022-10-31T14:14:16;101290.69;;;14.39;100.00
29163;BME280;20331;53.144;8.208;2022-10-31T14:24:38;101281.63;;;14.43;100.00
29163;BME280;20331;53.144;8.208;2022-10-31T14:35:00;101254.44;;;14.43;100.00
29163;BME280;20331;53.144;8.208;2022-10-31T14:55:47;101230.28;;;14.28;100.00
29163;BME280;20331;53.144;8.208;2022-10-31T15:06:10;101245.03;;;14.18;100.00
29163;BME280;20331;53.144;8.208;2022-10-31T15:16:34;101230.44;;;14.14;100.00
29163;BME280;20331;53.144;8.208;2022-10-31T15:26:56;101232.16;;;14.02;100.00
29163;BME280;20331;53.144;8.208;2022-10-31T15:37:25;101226.84;;;13.91;100.00
29163;BME280;20331;53.144;8.208;2022-10-31T15:58:14;101201.06;;;13.62;100.00
29163;BME280;20331;53.144;8.208;2022-10-31T16:08:37;101204.53;;;13.50;100.00
29163;BME280;20331;53.144;8.208;2022-10-31T16:19:11;101195.16;;;13.35;100.00
29163;BME280;20331;53.144;8.208;2022-10-31T16:29:37;101179.22;;;13.26;100.00
29163;BME280;20331;53.144;8.208;2022-10-31T16:40:00;101164.59;;;13.23;100.00
29163;BME280;20331;53.144;8.208;2022-10-31T16:50:26;101170.25;;;13.17;100.00
29163;BME280;20331;53.144;8.208;2022-10-31T17:00:48;101161.97;;;13.11;100.00
29163;BME280;20331;53.144;8.208;2022-10-31T17:11:19;101169.94;;;13.09;100.00
29163;BME280;20331;53.144;8.208;2022-10-31T17:21:42;101134.25;;;13.08;100.00
29163;BME280;20331;53.144;8.208;2022-10-31T17:32:03;101131.84;;;13.05;100.00
29163;BME280;20331;53.144;8.208;2022-10-31T17:42:25;101129.63;;;12.99;100.00
29163;BME280;20331;53.144;8.208;2022-10-31T17:52:46;101079.91;;;12.99;100.00
29163;BME280;20331;53.144;8.208;2022-10-31T18:03:08;101081.91;;;12.96;100.00
29163;BME280;20331;53.144;8.208;2022-10-31T18:13:29;101059.44;;;12.93;100.00
29163;BME280;20331;53.144;8.208;2022-10-31T18:23:54;101042.78;;;12.94;100.00
29163;BME280;20331;53.144;8.208;2022-10-31T18:34:16;101042.06;;;12.92;100.00
29163;BME280;20331;53.144;8.208;2022-10-31T18:44:37;101030.41;;;12.96;100.00
29163;BME280;20331;53.144;8.208;2022-10-31T18:54:59;101035.63;;;12.96;100.00
29163;BME280;20331;53.144;8.208;2022-10-31T19:05:20;100988.44;;;12.98;100.00
29163;BME280;20331;53.144;8.208;2022-10-31T19:15:42;100962.88;;;13.01;100.00
29163;BME280;20331;53.144;8.208;2022-10-31T19:26:03;100943.09;;;12.97;100.00
29163;BME280;20331;53.144;8.208;2022-10-31T19:36:25;100924.56;;;13.00;100.00
29163;BME280;20331;53.144;8.208;2022-10-31T19:46:47;100889.38;;;13.04;100.00
29163;BME280;20331;53.144;8.208;2022-10-31T19:57:13;100890.19;;;13.05;100.00
29163;BME280;20331;53.144;8.208;2022-10-31T20:07:35;100875.81;;;13.10;100.00
29163;BME280;20331;53.144;8.208;2022-10-31T20:17:56;100888.91;;;13.10;100.00
29163;BME280;20331;53.144;8.208;2022-10-31T20:28:18;100854.88;;;13.10;100.00
29163;BME280;20331;53.144;8.208;2022-10-31T20:38:40;100847.16;;;13.09;100.00
29163;BME280;20331;53.144;8.208;2022-10-31T20:49:01;100849.19;;;13.05;100.00
29163;BME280;20331;53.144;8.208;2022-10-31T20:59:23;100827.75;;;13.00;100.00
29163;BME280;20331;53.144;8.208;2022-10-31T21:09:45;100826.28;;;12.96;100.00
29163;BME280;20331;53.144;8.208;2022-10-31T21:20:06;100826.75;;;12.90;100.00
29163;BME280;20331;53.144;8.208;2022-10-31T21:30:29;100807.69;;;12.88;100.00
29163;BME280;20331;53.144;8.208;2022-10-31T21:40:56;100801.00;;;12.84;100.00
29163;BME280;20331;53.144;8.208;2022-10-31T21:51:21;100802.59;;;12.87;100.00
29163;BME280;20331;53.144;8.208;2022-10-31T22:01:44;100786.97;;;12.85;100.00
29163;BME280;20331;53.144;8.208;2022-10-31T22:12:05;100771.97;;;12.76;100.00
29163;BME280;20331;53.144;8.208;2022-10-31T22:22:29;100754.47;;;12.66;100.00
29163;BME280;20331;53.144;8.208;2022-10-31T22:32:50;100752.53;;;12.57;100.00
29163;BME280;20331;53.144;8.208;2022-10-31T22:43:11;100734.44;;;12.54;100.00
29163;BME280;20331;53.144;8.208;2022-10-31T22:53:33;100721.25;;;12.55;100.00
29163;BME280;20331;53.144;8.208;2022-10-31T23:03:55;100703.06;;;12.54;100.00
29163;BME280;20331;53.144;8.208;2022-10-31T23:14:18;100695.56;;;12.49;100.00
29163;BME280;20331;53.144;8.208;2022-10-31T23:24:41;100673.00;;;12.48;100.00
29163;BME280;20331;53.144;8.208;2022-10-31T23:35:04;100653.97;;;12.47;100.00
29163;BME280;20331;53.144;8.208;2022-10-31T23:45:26;100664.44;;;12.47;100.00
29163;BME280;20331;53.144;8.208;2022-10-31T23:55:48;100630.78;;;12.42;100.00
